Time;durP1;ratioP1;P1;durP2;ratioP2;P2;SDS_P1;SDS_P2;PMS_P1;PMS_P2;Temp;Humidity;BMP_temperature;BMP_pressure;BME280_temperature;BME280_humidity;BME280_pressure;Samples;Min_cycle;Max_cycle;Signal;HPM_P1;HPM_P2
2021/06/08 00:01:09;;;;;;;;;;;15.00;99.90;;;;;;8394932;28;19928;-66
2021/06/08 00:05:10;;;;;;;;;;;15.00;99.90;;;;;;8395200;28;19923;-66
2021/06/08 00:09:10;;;;;;;;;;;14.80;99.90;;;;;;8394284;28;19954;-66
2021/06/08 00:13:11;;;;;;;;;;;14.70;99.90;;;;;;8394230;28;19925;-66
2021/06/08 00:17:12;;;;;;;;;;;14.70;99.90;;;;;;8393400;28;19995;-67
2021/06/08 00:21:12;;;;;;;;;;;14.70;99.90;;;;;;8393936;28;19909;-67
2021/06/08 00:25:13;;;;;;;;;;;14.50;99.90;;;;;;8393891;28;19935;-67
2021/06/08 00:29:13;;;;;;;;;;;14.40;99.90;;;;;;8393490;28;19912;-67
2021/06/08 00:33:14;;;;;;;;;;;14.60;99.90;;;;;;8393499;28;20015;-67
2021/06/08 00:37:14;;;;;;;;;;;14.50;99.90;;;;;;8393390;28;19915;-67
2021/06/08 00:41:15;;;;;;;;;;;14.40;99.90;;;;;;8393212;28;20362;-66
2021/06/08 00:45:16;;;;;;;;;;;14.50;99.90;;;;;;8393456;28;20348;-67
2021/06/08 00:49:16;;;;;;;;;;;14.50;99.90;;;;;;8375137;28;19951;-66
2021/06/08 00:53:17;;;;;;;;;;;14.50;99.90;;;;;;8374910;28;19977;-67
2021/06/08 00:57:18;;;;;;;;;;;14.50;99.90;;;;;;8401437;28;19941;-67
2021/06/08 01:01:18;;;;;;;;;;;14.50;99.90;;;;;;8395890;28;20362;-67
2021/06/08 01:05:19;;;;;;;;;;;14.50;99.90;;;;;;8392759;28;19923;-67
2021/06/08 01:09:19;;;;;;;;;;;14.40;99.90;;;;;;8391307;28;19909;-67
2021/06/08 01:13:20;;;;;;;;;;;14.30;99.90;;;;;;8374591;28;19958;-67
2021/06/08 01:17:20;;;;;;;;;;;14.40;99.90;;;;;;8391578;28;19947;-66
2021/06/08 01:21:21;;;;;;;;;;;14.30;99.90;;;;;;8392472;28;20012;-66
2021/06/08 01:25:22;;;;;;;;;;;14.30;99.90;;;;;;8392409;28;19999;-66
2021/06/08 01:29:24;;;;;;;;;;;14.40;99.90;;;;;;8392323;28;19923;-66
2021/06/08 01:33:25;;;;;;;;;;;14.40;99.90;;;;;;8392289;28;19909;-66
2021/06/08 01:37:26;;;;;;;;;;;14.50;99.90;;;;;;8392140;28;19924;-66
2021/06/08 01:41:27;;;;;;;;;;;14.70;99.90;;;;;;8392215;28;20293;-66
2021/06/08 01:45:27;;;;;;;;;;;14.90;99.90;;;;;;8392246;28;19909;-66
2021/06/08 01:49:28;;;;;;;;;;;14.80;99.90;;;;;;8391932;28;19908;-67
2021/06/08 01:53:39;;;;;;;;;;;14.70;99.90;;;;;;8391834;28;19912;-66
2021/06/08 01:57:43;;;;;;;;;;;14.60;99.90;;;;;;8391741;28;19909;-67
2021/06/08 02:01:47;;;;;;;;;;;14.40;99.90;;;;;;8379608;23;20019;-64
2021/06/08 02:06:09;;;;;;;;;;;14.40;99.90;;;;;;8357150;28;19909;-64
2021/06/08 02:10:20;;;;;;;;;;;14.40;99.90;;;;;;8358217;28;20386;-64
2021/06/08 02:14:24;;;;;;;;;;;14.40;99.90;;;;;;8358604;28;19913;-64
2021/06/08 02:18:28;;;;;;;;;;;14.40;99.90;;;;;;8358019;28;19909;-64
2021/06/08 02:22:29;;;;;;;;;;;14.40;99.90;;;;;;8357586;28;19921;-64
2021/06/08 02:26:31;;;;;;;;;;;14.40;99.90;;;;;;8358013;28;20383;-64
2021/06/08 02:30:32;;;;;;;;;;;14.40;99.90;;;;;;8356662;28;19909;-64
2021/06/08 02:34:33;;;;;;;;;;;14.60;99.90;;;;;;8358130;28;19909;-64
2021/06/08 02:38:35;;;;;;;;;;;14.50;99.90;;;;;;8357678;28;19913;-64
2021/06/08 02:42:35;;;;;;;;;;;14.60;99.90;;;;;;8359547;28;19956;-64
2021/06/08 02:46:37;;;;;;;;;;;14.50;99.90;;;;;;8364110;28;20321;-64
2021/06/08 02:50:38;;;;;;;;;;;14.60;99.90;;;;;;8364565;28;19955;-64
2021/06/08 02:54:38;;;;;;;;;;;14.60;99.90;;;;;;8364057;28;19917;-64
2021/06/08 02:58:42;;;;;;;;;;;14.80;99.90;;;;;;8362942;28;19916;-64
2021/06/08 03:02:44;;;;;;;;;;;14.70;99.90;;;;;;8363689;28;20425;-64
2021/06/08 03:06:49;;;;;;;;;;;14.50;99.90;;;;;;8363711;28;19909;-64
2021/06/08 03:10:51;;;;;;;;;;;14.40;99.90;;;;;;8363508;28;19944;-64
2021/06/08 03:14:51;;;;;;;;;;;14.40;99.90;;;;;;8363645;28;20370;-64
2021/06/08 03:18:53;;;;;;;;;;;14.40;99.90;;;;;;8361712;28;19916;-64
2021/06/08 03:22:56;;;;;;;;;;;14.40;99.90;;;;;;8362790;28;19924;-64
2021/06/08 03:26:57;;;;;;;;;;;14.40;99.90;;;;;;8362868;28;19916;-64
2021/06/08 03:30:58;;;;;;;;;;;14.40;99.90;;;;;;8363007;28;20382;-64
2021/06/08 03:34:59;;;;;;;;;;;14.40;99.90;;;;;;8362162;28;19915;-64
2021/06/08 03:39:00;;;;;;;;;;;14.40;99.90;;;;;;8362138;28;20004;-64
2021/06/08 03:43:00;;;;;;;;;;;14.50;99.90;;;;;;8362160;28;20390;-64
2021/06/08 03:47:01;;;;;;;;;;;14.50;99.90;;;;;;8362175;28;19943;-64
2021/06/08 03:51:02;;;;;;;;;;;14.60;99.90;;;;;;8362457;28;19916;-64
2021/06/08 03:55:03;;;;;;;;;;;14.50;99.90;;;;;;8377225;28;19916;-64
2021/06/08 03:59:04;;;;;;;;;;;14.60;99.90;;;;;;8361654;28;19913;-64
2021/06/08 04:03:05;;;;;;;;;;;14.80;99.90;;;;;;8361522;28;19928;-64
2021/06/08 04:07:05;;;;;;;;;;;14.80;99.90;;;;;;8361749;28;20042;-64
2021/06/08 04:11:09;;;;;;;;;;;14.80;99.90;;;;;;8361898;28;20001;-64
2021/06/08 04:15:09;;;;;;;;;;;14.80;99.90;;;;;;8361580;28;20349;-64
2021/06/08 04:19:10;;;;;;;;;;;14.70;99.90;;;;;;8361203;28;20029;-64
2021/06/08 04:23:11;;;;;;;;;;;14.90;99.90;;;;;;8361214;28;20401;-64
2021/06/08 04:27:11;;;;;;;;;;;15.00;99.90;;;;;;8359987;28;20007;-64
2021/06/08 04:31:12;;;;;;;;;;;15.20;99.90;;;;;;8376521;28;19909;-64
2021/06/08 04:35:13;;;;;;;;;;;15.50;99.90;;;;;;8361037;28;19920;-64
2021/06/08 04:39:14;;;;;;;;;;;15.60;99.90;;;;;;8360309;28;20353;-64
2021/06/08 04:43:14;;;;;;;;;;;15.70;99.90;;;;;;8360441;28;19920;-64
2021/06/08 04:47:18;;;;;;;;;;;15.80;99.90;;;;;;8359732;28;19909;-64
2021/06/08 04:51:20;;;;;;;;;;;15.70;99.90;;;;;;8360055;28;19909;-66
2021/06/08 04:55:21;;;;;;;;;;;15.50;99.90;;;;;;8354804;28;19959;-66
2021/06/08 04:59:30;;;;;;;;;;;15.60;99.90;;;;;;8375089;28;19909;-66
2021/06/08 05:03:34;;;;;;;;;;;15.60;99.90;;;;;;8350746;28;20416;-66
2021/06/08 05:07:37;;;;;;;;;;;15.60;99.90;;;;;;8328132;28;19956;-66
2021/06/08 05:11:41;;;;;;;;;;;15.70;99.90;;;;;;8358791;28;19916;-66
2021/06/08 05:15:43;;;;;;;;;;;16.00;99.90;;;;;;8326238;28;19944;-66
2021/06/08 05:19:43;;;;;;;;;;;16.30;99.90;;;;;;8324319;28;19950;-66
2021/06/08 05:23:44;;;;;;;;;;;16.60;99.90;;;;;;8340556;28;19917;-66
2021/06/08 05:27:46;;;;;;;;;;;16.50;99.90;;;;;;8346991;28;20258;-66
2021/06/08 05:31:47;;;;;;;;;;;16.70;99.90;;;;;;8342042;28;19916;-66
2021/06/08 05:35:51;;;;;;;;;;;16.80;99.90;;;;;;8341694;28;19924;-67
2021/06/08 05:39:51;;;;;;;;;;;17.00;99.90;;;;;;8336459;28;20433;-66
2021/06/08 05:43:52;;;;;;;;;;;16.90;99.90;;;;;;8747990;23;19936;-72
2021/06/08 05:47:52;;;;;;;;;;;16.90;99.90;;;;;;8391531;28;19908;-72
2021/06/08 05:51:53;;;;;;;;;;;16.80;99.90;;;;;;8371609;28;19916;-72
2021/06/08 05:55:55;;;;;;;;;;;16.60;99.90;;;;;;8399034;22;19928;-66
2021/06/08 05:59:55;;;;;;;;;;;16.50;99.90;;;;;;8354476;28;19924;-67
2021/06/08 06:03:56;;;;;;;;;;;16.60;99.90;;;;;;8361828;28;19932;-65
2021/06/08 06:07:58;;;;;;;;;;;17.10;99.90;;;;;;8348666;28;19974;-65
2021/06/08 06:11:59;;;;;;;;;;;17.20;99.90;;;;;;8339851;28;19921;-65
2021/06/08 06:16:00;;;;;;;;;;;17.70;99.90;;;;;;8357840;28;19970;-65
2021/06/08 06:20:01;;;;;;;;;;;17.50;99.90;;;;;;8363737;28;19944;-64
2021/06/08 06:24:03;;;;;;;;;;;17.60;99.90;;;;;;8347831;28;19916;-65
2021/06/08 06:28:04;;;;;;;;;;;17.60;99.90;;;;;;8357549;28;19913;-66
2021/06/08 06:32:04;;;;;;;;;;;17.50;99.90;;;;;;8362328;28;19951;-66
2021/06/08 06:36:07;;;;;;;;;;;17.40;99.90;;;;;;8357672;28;19909;-65
2021/06/08 06:40:13;;;;;;;;;;;17.40;99.90;;;;;;8360967;28;20037;-66
2021/06/08 06:44:14;;;;;;;;;;;17.40;99.90;;;;;;8357939;28;19979;-65
2021/06/08 06:48:15;;;;;;;;;;;17.40;99.90;;;;;;8362713;28;19909;-65
2021/06/08 06:52:17;;;;;;;;;;;17.50;99.90;;;;;;8360552;28;20485;-64
2021/06/08 06:56:18;;;;;;;;;;;17.70;99.90;;;;;;8362295;28;20381;-66
2021/06/08 07:00:19;;;;;;;;;;;17.80;99.90;;;;;;8361860;28;19908;-64
2021/06/08 07:04:21;;;;;;;;;;;17.80;99.90;;;;;;8362605;28;19977;-65
2021/06/08 07:08:22;;;;;;;;;;;17.60;99.90;;;;;;8363144;28;19913;-65
2021/06/08 07:12:23;;;;;;;;;;;17.60;99.90;;;;;;8362151;28;19920;-65
2021/06/08 07:16:25;;;;;;;;;;;17.60;99.90;;;;;;8362148;28;19998;-65
2021/06/08 07:20:26;;;;;;;;;;;17.70;99.90;;;;;;8363072;28;20029;-65
2021/06/08 07:24:26;;;;;;;;;;;18.20;99.90;;;;;;8343133;28;19943;-65
2021/06/08 07:28:27;;;;;;;;;;;18.70;99.90;;;;;;8341818;28;19913;-66
2021/06/08 07:32:30;;;;;;;;;;;19.10;99.90;;;;;;8353928;28;19913;-66
2021/06/08 07:36:46;;;;;;;;;;;18.80;99.90;;;;;;8354169;28;19923;-66
2021/06/08 07:40:56;;;;;;;;;;;18.80;99.90;;;;;;8355375;28;20039;-67
2021/06/08 07:45:18;;;;;;;;;;;19.00;99.90;;;;;;8350459;28;19925;-66
2021/06/08 07:49:21;;;;;;;;;;;19.00;99.90;;;;;;8296535;28;19919;-67
2021/06/08 07:53:22;;;;;;;;;;;19.30;99.90;;;;;;8308116;28;19913;-67
2021/06/08 07:57:23;;;;;;;;;;;19.00;99.90;;;;;;8336693;28;20315;-67
2021/06/08 08:01:26;;;;;;;;;;;19.10;99.90;;;;;;8338380;28;19913;-68
2021/06/08 08:05:27;;;;;;;;;;;19.10;99.90;;;;;;8330008;28;19924;-67
2021/06/08 08:09:28;;;;;;;;;;;19.00;99.90;;;;;;8328359;28;19909;-65
2021/06/08 08:13:29;;;;;;;;;;;19.00;99.90;;;;;;8360792;28;20382;-66
2021/06/08 08:17:30;;;;;;;;;;;19.20;99.90;;;;;;8359636;28;19942;-66
2021/06/08 08:21:30;;;;;;;;;;;19.30;99.90;;;;;;8360008;28;20331;-66
2021/06/08 08:25:31;;;;;;;;;;;19.40;99.90;;;;;;8341544;28;20008;-66
2021/06/08 08:29:31;;;;;;;;;;;19.50;99.90;;;;;;8359851;28;19913;-65
2021/06/08 08:33:32;;;;;;;;;;;19.60;99.90;;;;;;8358908;28;20009;-65
2021/06/08 08:37:32;;;;;;;;;;;19.00;99.90;;;;;;8359739;28;19916;-66
2021/06/08 08:41:33;;;;;;;;;;;18.70;99.90;;;;;;8358615;28;19952;-66
2021/06/08 08:45:34;;;;;;;;;;;18.80;99.90;;;;;;8325511;28;19913;-66
2021/06/08 08:49:35;;;;;;;;;;;19.00;99.90;;;;;;8354456;28;19916;-66
2021/06/08 08:53:36;;;;;;;;;;;19.30;99.90;;;;;;8355343;28;19913;-66
2021/06/08 08:57:37;;;;;;;;;;;20.00;99.90;;;;;;8357203;28;19932;-65
2021/06/08 09:01:38;;;;;;;;;;;20.20;99.90;;;;;;8353452;28;19970;-66
2021/06/08 09:05:39;;;;;;;;;;;20.40;99.90;;;;;;8354041;28;20393;-65
2021/06/08 09:09:39;;;;;;;;;;;20.80;99.90;;;;;;8355575;28;19913;-66
2021/06/08 09:13:40;;;;;;;;;;;20.70;99.90;;;;;;8358672;28;19909;-66
2021/06/08 09:17:41;;;;;;;;;;;21.50;99.90;;;;;;8358107;28;19916;-66
2021/06/08 09:21:44;;;;;;;;;;;22.20;99.90;;;;;;8358366;28;19956;-66
2021/06/08 09:25:45;;;;;;;;;;;22.70;99.90;;;;;;8354243;28;19952;-66
2021/06/08 09:29:45;;;;;;;;;;;22.50;99.90;;;;;;8351276;28;19913;-66
2021/06/08 09:33:47;;;;;;;;;;;21.90;99.90;;;;;;8356805;28;19920;-66
2021/06/08 09:37:47;;;;;;;;;;;21.80;99.90;;;;;;8356427;28;19920;-66
2021/06/08 09:41:50;;;;;;;;;;;21.80;99.90;;;;;;8337969;28;19909;-67
2021/06/08 09:45:52;;;;;;;;;;;21.40;99.90;;;;;;8357153;28;19923;-66
2021/06/08 09:49:52;;;;;;;;;;;21.40;99.90;;;;;;8354128;28;19935;-65
2021/06/08 09:53:53;;;;;;;;;;;21.50;99.90;;;;;;8353490;28;19924;-65
2021/06/08 09:57:53;;;;;;;;;;;21.10;99.90;;;;;;8357024;28;19971;-66
2021/06/08 10:01:54;;;;;;;;;;;21.30;99.90;;;;;;8357321;28;20390;-66
2021/06/08 10:06:03;;;;;;;;;;;21.90;99.90;;;;;;8355833;28;19915;-66
2021/06/08 10:10:07;;;;;;;;;;;22.90;99.90;;;;;;8352497;28;19920;-66
2021/06/08 10:14:25;;;;;;;;;;;24.00;99.90;;;;;;8354607;28;19925;-66
2021/06/08 10:18:26;;;;;;;;;;;24.60;99.90;;;;;;8355663;28;19944;-65
2021/06/08 10:22:31;;;;;;;;;;;24.90;99.90;;;;;;8353840;28;19917;-66
2021/06/08 10:26:34;;;;;;;;;;;25.30;99.90;;;;;;8355799;28;19921;-65
2021/06/08 10:30:34;;;;;;;;;;;25.30;99.90;;;;;;8356929;28;19913;-67
2021/06/08 10:34:36;;;;;;;;;;;26.00;99.90;;;;;;8345639;28;20003;-66
2021/06/08 10:38:36;;;;;;;;;;;26.30;99.90;;;;;;8325321;28;19909;-67
2021/06/08 10:42:36;;;;;;;;;;;25.70;99.90;;;;;;8326818;28;19952;-66
2021/06/08 10:46:44;;;;;;;;;;;24.60;99.90;;;;;;8330652;28;19920;-66
2021/06/08 10:50:49;;;;;;;;;;;24.60;99.90;;;;;;8326944;28;19956;-67
2021/06/08 10:54:50;;;;;;;;;;;25.30;99.90;;;;;;8327764;28;20004;-66
2021/06/08 10:58:53;;;;;;;;;;;26.40;99.90;;;;;;8322722;28;19917;-66
2021/06/08 11:03:00;;;;;;;;;;;27.00;99.90;;;;;;8342493;28;19917;-69
2021/06/08 11:07:03;;;;;;;;;;;27.70;99.90;;;;;;8329308;28;19909;-70
2021/06/08 11:11:03;;;;;;;;;;;28.00;99.90;;;;;;8330706;28;19910;-70
2021/06/08 11:15:18;;;;;;;;;;;28.50;99.90;;;;;;8311976;28;19917;-67
2021/06/08 11:19:39;;;;;;;;;;;26.80;99.90;;;;;;8336438;28;19935;-64
2021/06/08 11:23:43;;;;;;;;;;;25.10;99.90;;;;;;8319128;28;20008;-64
2021/06/08 11:27:54;;;;;;;;;;;24.90;99.90;;;;;;8326816;28;19924;-65
2021/06/08 11:31:54;;;;;;;;;;;25.90;99.90;;;;;;8319801;28;19924;-66
2021/06/08 11:35:55;;;;;;;;;;;27.70;99.90;;;;;;8323289;28;19909;-65
2021/06/08 11:39:55;;;;;;;;;;;28.50;99.90;;;;;;8328400;28;19916;-64
2021/06/08 11:44:00;;;;;;;;;;;30.00;99.90;;;;;;8322289;28;19987;-64
2021/06/08 11:48:01;;;;;;;;;;;31.30;99.50;;;;;;8333126;28;20376;-65
2021/06/08 11:52:01;;;;;;;;;;;32.30;93.60;;;;;;8358610;28;19917;-65
2021/06/08 11:56:03;;;;;;;;;;;31.80;90.40;;;;;;8357519;28;20015;-64
2021/06/08 12:00:05;;;;;;;;;;;31.50;89.40;;;;;;8418805;22;19924;-63
2021/06/08 12:04:06;;;;;;;;;;;30.80;91.30;;;;;;8392808;28;19927;-62
2021/06/08 12:08:11;;;;;;;;;;;30.20;95.60;;;;;;8411192;28;20398;-61
2021/06/08 12:12:16;;;;;;;;;;;30.80;94.00;;;;;;8378245;28;19913;-62
2021/06/08 12:16:17;;;;;;;;;;;31.20;93.00;;;;;;8393308;28;19956;-62
2021/06/08 12:20:20;;;;;;;;;;;29.30;91.30;;;;;;8392801;28;20313;-62
2021/06/08 12:24:21;;;;;;;;;;;28.80;93.00;;;;;;8386133;28;19925;-62
2021/06/08 12:28:21;;;;;;;;;;;28.80;95.90;;;;;;8392372;28;19923;-62
2021/06/08 12:32:22;;;;;;;;;;;29.10;96.60;;;;;;8392622;28;20328;-62
2021/06/08 12:36:23;;;;;;;;;;;30.60;91.30;;;;;;8391732;28;19917;-62
2021/06/08 12:40:23;;;;;;;;;;;31.40;91.50;;;;;;8392922;28;19908;-64
2021/06/08 12:44:30;;;;;;;;;;;32.10;87.60;;;;;;8389228;28;20433;-62
2021/06/08 12:48:30;;;;;;;;;;;32.90;80.80;;;;;;8358039;28;19935;-63
2021/06/08 12:52:31;;;;;;;;;;;33.70;82.30;;;;;;8388659;28;19917;-63
2021/06/08 12:56:31;;;;;;;;;;;34.00;75.60;;;;;;8381339;28;19959;-64
2021/06/08 13:00:33;;;;;;;;;;;36.00;65.30;;;;;;8358465;28;19967;-64
2021/06/08 13:04:37;;;;;;;;;;;39.20;58.20;;;;;;8366125;28;19923;-64
2021/06/08 13:08:38;;;;;;;;;;;;;;;;;;8391247;28;19916;-62
2021/06/08 13:12:40;;;;;;;;;;;38.70;75.10;;;;;;8385038;28;19924;-63
2021/06/08 13:16:40;;;;;;;;;;;39.00;48.60;;;;;;8371583;28;19959;-63
2021/06/08 13:20:51;;;;;;;;;;;41.70;48.80;;;;;;8391244;28;19912;-63
2021/06/08 13:24:52;;;;;;;;;;;42.70;41.20;;;;;;8367651;28;20301;-63
2021/06/08 13:28:54;;;;;;;;;;;41.60;42.70;;;;;;8389188;28;19916;-63
2021/06/08 13:32:59;;;;;;;;;;;42.40;39.80;;;;;;8386571;28;19913;-63
2021/06/08 13:37:04;;;;;;;;;;;41.70;38.90;;;;;;8358272;28;20019;-63
2021/06/08 13:41:04;;;;;;;;;;;43.00;42.20;;;;;;8378126;28;19913;-63
2021/06/08 13:45:06;;;;;;;;;;;44.70;38.60;;;;;;8391508;28;19962;-66
2021/06/08 13:49:07;;;;;;;;;;;44.20;35.10;;;;;;8390268;28;20358;-65
2021/06/08 13:53:16;;;;;;;;;;;44.40;34.20;;;;;;8382472;28;19913;-65
2021/06/08 14:01:17;;;;;;;;;;;43.20;37.60;;;;;;8358483;28;19927;-65
2021/06/08 14:05:22;;;;;;;;;;;44.50;36.10;;;;;;8362806;28;19932;-66
2021/06/08 14:09:23;;;;;;;;;;;45.80;33.30;;;;;;8384570;28;20354;-63
2021/06/08 14:13:28;;;;;;;;;;;45.30;34.70;;;;;;8389731;28;19913;-63
2021/06/08 14:17:28;;;;;;;;;;;45.60;33.70;;;;;;8390340;28;20023;-63
2021/06/08 14:21:29;;;;;;;;;;;45.80;32.90;;;;;;8391396;28;19912;-63
2021/06/08 14:25:29;;;;;;;;;;;44.70;32.90;;;;;;8390192;28;19954;-63
2021/06/08 14:29:30;;;;;;;;;;;44.00;32.30;;;;;;8385271;28;19939;-63
2021/06/08 14:33:30;;;;;;;;;;;43.70;34.90;;;;;;8388934;28;19938;-65
2021/06/08 14:37:31;;;;;;;;;;;42.60;35.10;;;;;;8388240;28;19919;-65
2021/06/08 14:41:31;;;;;;;;;;;42.70;32.10;;;;;;8362202;28;19963;-67
2021/06/08 14:45:32;;;;;;;;;;;41.20;38.10;;;;;;8372186;28;20336;-66
2021/06/08 14:49:32;;;;;;;;;;;40.40;38.40;;;;;;8386803;28;20410;-65
2021/06/08 14:53:33;;;;;;;;;;;40.20;38.10;;;;;;8370339;28;20003;-64
2021/06/08 14:57:33;;;;;;;;;;;41.10;38.80;;;;;;8393956;28;19923;-65
2021/06/08 15:01:34;;;;;;;;;;;42.30;36.50;;;;;;8394571;28;19932;-65
2021/06/08 15:05:35;;;;;;;;;;;39.50;39.40;;;;;;8393507;28;19923;-64
2021/06/08 15:09:35;;;;;;;;;;;35.80;45.10;;;;;;8392524;28;19955;-64
2021/06/08 15:13:36;;;;;;;;;;;32.80;53.00;;;;;;8394797;28;19912;-64
2021/06/08 15:17:36;;;;;;;;;;;31.10;62.00;;;;;;8390223;28;19923;-65
2021/06/08 15:21:37;;;;;;;;;;;29.60;62.50;;;;;;8395112;28;19964;-65
2021/06/08 15:25:37;;;;;;;;;;;28.40;67.10;;;;;;8393740;28;19966;-64
2021/06/08 15:29:38;;;;;;;;;;;26.40;77.00;;;;;;8395641;28;19951;-66
2021/06/08 15:33:39;;;;;;;;;;;25.10;95.80;;;;;;8389361;28;19962;-64
2021/06/08 15:37:39;;;;;;;;;;;23.90;99.90;;;;;;8395237;28;19963;-65
2021/06/08 15:41:40;;;;;;;;;;;23.20;99.90;;;;;;8395377;28;19919;-64
2021/06/08 15:45:41;;;;;;;;;;;22.80;99.90;;;;;;8394050;28;19931;-64
2021/06/08 15:49:41;;;;;;;;;;;22.70;99.90;;;;;;8392512;28;20285;-64
2021/06/08 15:53:42;;;;;;;;;;;22.40;99.90;;;;;;8368121;28;20293;-64
2021/06/08 15:57:43;;;;;;;;;;;22.20;99.90;;;;;;8370596;28;20657;-64
2021/06/08 16:01:44;;;;;;;;;;;22.10;99.90;;;;;;8372377;28;20309;-64
2021/06/08 16:05:45;;;;;;;;;;;22.20;99.90;;;;;;8392697;28;19918;-64
2021/06/08 16:09:46;;;;;;;;;;;22.50;99.90;;;;;;8392505;28;20382;-64
2021/06/08 16:13:46;;;;;;;;;;;22.50;99.90;;;;;;8392347;28;19915;-64
2021/06/08 16:17:46;;;;;;;;;;;22.50;99.90;;;;;;8379393;28;19923;-64
2021/06/08 16:21:47;;;;;;;;;;;21.90;99.90;;;;;;8394134;28;20286;-64
2021/06/08 16:25:48;;;;;;;;;;;21.80;99.90;;;;;;8361827;28;20390;-64
2021/06/08 16:29:48;;;;;;;;;;;22.10;99.90;;;;;;8384426;28;20322;-64
2021/06/08 16:38:28;;;;;;;;;;;22.10;99.90;;;;;;8378043;28;19927;-63
2021/06/08 16:42:28;;;;;;;;;;;22.10;99.90;;;;;;8347113;28;19917;-61
2021/06/08 16:46:29;;;;;;;;;;;21.80;99.90;;;;;;8343664;28;19981;-62
2021/06/08 16:50:35;;;;;;;;;;;21.40;99.90;;;;;;8345445;28;19964;-62
2021/06/08 16:54:35;;;;;;;;;;;21.10;99.90;;;;;;8344348;28;20333;-62
2021/06/08 16:58:38;;;;;;;;;;;20.60;99.90;;;;;;8342256;28;20045;-62
2021/06/08 17:02:38;;;;;;;;;;;20.20;99.90;;;;;;8351168;28;19921;-62
2021/06/08 17:06:39;;;;;;;;;;;20.50;99.90;;;;;;8346350;28;19986;-63
2021/06/08 17:10:39;;;;;;;;;;;20.70;99.90;;;;;;8336951;28;19920;-63
2021/06/08 17:14:40;;;;;;;;;;;21.10;99.90;;;;;;8329727;28;20302;-63
2021/06/08 17:18:40;;;;;;;;;;;21.10;99.90;;;;;;8322512;28;20039;-63
2021/06/08 17:22:41;;;;;;;;;;;21.10;99.90;;;;;;8332059;28;19932;-63
2021/06/08 17:26:42;;;;;;;;;;;21.20;99.90;;;;;;8341302;28;20032;-63
2021/06/08 17:30:42;;;;;;;;;;;21.20;99.90;;;;;;8332507;28;20487;-63
2021/06/08 17:34:43;;;;;;;;;;;21.30;99.90;;;;;;8336405;28;19917;-63
2021/06/08 17:38:43;;;;;;;;;;;21.20;99.90;;;;;;8330627;28;19916;-63
2021/06/08 17:42:44;;;;;;;;;;;21.20;99.90;;;;;;8344165;28;19921;-64
2021/06/08 17:46:44;;;;;;;;;;;21.40;99.90;;;;;;8335722;28;19924;-63
2021/06/08 17:50:45;;;;;;;;;;;21.50;99.90;;;;;;8339797;28;19993;-64
2021/06/08 17:54:46;;;;;;;;;;;21.30;99.90;;;;;;8341324;28;20345;-63
2021/06/08 17:58:46;;;;;;;;;;;21.20;99.90;;;;;;8349382;28;20305;-64
2021/06/08 18:02:47;;;;;;;;;;;21.00;99.90;;;;;;8352032;28;19936;-63
2021/06/08 18:06:52;;;;;;;;;;;20.90;99.90;;;;;;8344000;28;19963;-63
2021/06/08 18:10:52;;;;;;;;;;;20.80;99.90;;;;;;8330012;28;20366;-63
2021/06/08 18:14:53;;;;;;;;;;;20.60;99.90;;;;;;8344756;28;19916;-63
2021/06/08 18:19:03;;;;;;;;;;;20.40;99.90;;;;;;8353518;28;19917;-63
2021/06/08 18:23:06;;;;;;;;;;;20.20;99.90;;;;;;8356332;28;20436;-63
2021/06/08 18:27:07;;;;;;;;;;;20.00;99.90;;;;;;8347007;28;19923;-63
2021/06/08 18:31:07;;;;;;;;;;;19.80;99.90;;;;;;8357315;28;20310;-63
2021/06/08 18:35:08;;;;;;;;;;;19.70;99.90;;;;;;8333353;28;19917;-64
2021/06/08 18:39:09;;;;;;;;;;;19.50;99.90;;;;;;8327335;28;19944;-63
2021/06/08 18:43:11;;;;;;;;;;;19.30;99.90;;;;;;8336567;28;19929;-63
2021/06/08 18:47:11;;;;;;;;;;;19.30;99.90;;;;;;8337416;28;19924;-63
2021/06/08 18:51:13;;;;;;;;;;;19.10;99.90;;;;;;8344229;28;19979;-63
2021/06/08 18:55:13;;;;;;;;;;;18.60;99.90;;;;;;8347566;28;19951;-63
2021/06/08 18:59:14;;;;;;;;;;;18.30;99.90;;;;;;8339784;28;19921;-63
2021/06/08 19:03:14;;;;;;;;;;;18.10;99.90;;;;;;8365829;28;19924;-63
2021/06/08 19:07:15;;;;;;;;;;;18.00;99.90;;;;;;8391119;28;19997;-63
2021/06/08 19:11:16;;;;;;;;;;;17.90;99.90;;;;;;8356046;28;19921;-63
2021/06/08 19:15:16;;;;;;;;;;;17.80;99.90;;;;;;8351969;28;19927;-63
2021/06/08 19:19:18;;;;;;;;;;;17.70;99.90;;;;;;8347668;28;20088;-63
2021/06/08 19:23:19;;;;;;;;;;;17.50;99.90;;;;;;8365169;28;19924;-63
2021/06/08 19:27:19;;;;;;;;;;;17.40;99.90;;;;;;8389128;28;19912;-63
2021/06/08 19:31:22;;;;;;;;;;;17.50;99.90;;;;;;8391051;28;19913;-66
2021/06/08 19:35:23;;;;;;;;;;;17.40;99.90;;;;;;8377547;28;20387;-66
2021/06/08 19:39:23;;;;;;;;;;;17.30;99.90;;;;;;8388598;28;19969;-66
2021/06/08 19:43:24;;;;;;;;;;;17.10;99.90;;;;;;8391251;28;19939;-66
2021/06/08 19:47:27;;;;;;;;;;;16.80;99.90;;;;;;8391056;28;19966;-65
2021/06/08 19:51:28;;;;;;;;;;;16.80;99.90;;;;;;8390598;28;19916;-66
2021/06/08 19:55:29;;;;;;;;;;;17.10;99.90;;;;;;8385733;28;19924;-64
2021/06/08 19:59:30;;;;;;;;;;;17.10;99.90;;;;;;8385512;28;19924;-64
2021/06/08 20:03:30;;;;;;;;;;;16.70;99.90;;;;;;8388129;28;19920;-64
2021/06/08 20:07:32;;;;;;;;;;;16.80;99.90;;;;;;8380870;28;19921;-64
2021/06/08 20:11:33;;;;;;;;;;;16.60;99.90;;;;;;8388719;28;20371;-64
2021/06/08 20:15:34;;;;;;;;;;;16.50;99.90;;;;;;8391128;28;20010;-64
2021/06/08 20:19:35;;;;;;;;;;;16.80;99.90;;;;;;8371314;28;20003;-63
2021/06/08 20:23:35;;;;;;;;;;;16.50;99.90;;;;;;8367564;28;20607;-64
2021/06/08 20:27:36;;;;;;;;;;;16.40;99.90;;;;;;8383339;28;19919;-64
2021/06/08 20:31:37;;;;;;;;;;;16.40;99.90;;;;;;8390509;28;19969;-64
2021/06/08 20:35:37;;;;;;;;;;;16.50;99.90;;;;;;8389853;28;19939;-64
2021/06/08 20:39:38;;;;;;;;;;;16.50;99.90;;;;;;8388892;28;19951;-64
2021/06/08 20:43:38;;;;;;;;;;;16.30;99.90;;;;;;8392175;28;19919;-64
2021/06/08 20:47:39;;;;;;;;;;;16.10;99.90;;;;;;8392607;28;19988;-64
2021/06/08 20:51:40;;;;;;;;;;;16.20;99.90;;;;;;8392614;28;19915;-64
2021/06/08 20:55:40;;;;;;;;;;;16.00;99.90;;;;;;8389128;28;19909;-64
2021/06/08 20:59:41;;;;;;;;;;;16.00;99.90;;;;;;8388471;28;19924;-64
2021/06/08 21:03:42;;;;;;;;;;;16.00;99.90;;;;;;8381298;28;20329;-64
2021/06/08 21:07:43;;;;;;;;;;;15.90;99.90;;;;;;8360384;28;19959;-64
2021/06/08 21:11:43;;;;;;;;;;;15.80;99.90;;;;;;8360684;28;19916;-64
2021/06/08 21:15:45;;;;;;;;;;;15.70;99.90;;;;;;8360110;28;19916;-64
2021/06/08 21:19:45;;;;;;;;;;;15.80;99.90;;;;;;8341951;28;20541;-64
2021/06/08 21:23:46;;;;;;;;;;;15.80;99.90;;;;;;8359377;28;19917;-64
2021/06/08 21:27:46;;;;;;;;;;;15.90;99.90;;;;;;8359472;28;19916;-64
2021/06/08 21:31:47;;;;;;;;;;;16.00;99.90;;;;;;8359724;28;19940;-64
2021/06/08 21:35:47;;;;;;;;;;;16.00;99.90;;;;;;8359391;28;20425;-65
2021/06/08 21:39:48;;;;;;;;;;;15.80;99.90;;;;;;8341196;28;19916;-64
2021/06/08 21:43:48;;;;;;;;;;;15.70;99.90;;;;;;8341634;28;19913;-64
2021/06/08 21:47:49;;;;;;;;;;;15.60;99.90;;;;;;8358970;28;19908;-64
2021/06/08 21:51:49;;;;;;;;;;;15.50;99.90;;;;;;8359545;28;19909;-64
2021/06/08 21:55:50;;;;;;;;;;;15.50;99.90;;;;;;8358986;28;20479;-64
2021/06/08 21:59:50;;;;;;;;;;;15.50;99.90;;;;;;8358776;28;19917;-64
2021/06/08 22:03:50;;;;;;;;;;;15.60;99.90;;;;;;8358860;28;19912;-64
2021/06/08 22:07:51;;;;;;;;;;;15.50;99.90;;;;;;8358627;28;20359;-64
2021/06/08 22:11:52;;;;;;;;;;;15.60;99.90;;;;;;8358953;28;20054;-64
2021/06/08 22:15:52;;;;;;;;;;;15.60;99.90;;;;;;8358419;28;19974;-64
2021/06/08 22:19:53;;;;;;;;;;;15.60;99.90;;;;;;8358491;28;20465;-64
2021/06/08 22:23:53;;;;;;;;;;;15.60;99.90;;;;;;8358461;28;19916;-64
2021/06/08 22:27:54;;;;;;;;;;;15.50;99.90;;;;;;8340591;28;19909;-64
2021/06/08 22:31:54;;;;;;;;;;;15.50;99.90;;;;;;8358514;28;20374;-64
2021/06/08 22:35:55;;;;;;;;;;;15.60;99.90;;;;;;8358052;28;20008;-64
2021/06/08 22:39:56;;;;;;;;;;;15.60;99.90;;;;;;8358250;28;19909;-64
2021/06/08 22:43:57;;;;;;;;;;;15.40;99.90;;;;;;8358196;28;19947;-64
2021/06/08 22:47:58;;;;;;;;;;;15.40;99.90;;;;;;8357926;28;19916;-64
2021/06/08 22:51:58;;;;;;;;;;;15.50;99.90;;;;;;8358038;28;20015;-64
2021/06/08 22:55:59;;;;;;;;;;;15.50;99.90;;;;;;8357734;28;19916;-64
2021/06/08 22:59:59;;;;;;;;;;;15.60;99.90;;;;;;8343434;28;19923;-64
2021/06/08 23:04:00;;;;;;;;;;;15.70;99.90;;;;;;8363874;28;19913;-64
2021/06/08 23:08:01;;;;;;;;;;;15.90;99.90;;;;;;8363690;28;19916;-64
2021/06/08 23:12:02;;;;;;;;;;;15.70;99.90;;;;;;8363972;28;19920;-64
2021/06/08 23:16:03;;;;;;;;;;;15.70;99.90;;;;;;8363369;28;19915;-64
2021/06/08 23:20:05;;;;;;;;;;;15.60;99.90;;;;;;8363518;28;20485;-64
2021/06/08 23:24:05;;;;;;;;;;;15.80;99.90;;;;;;8363282;28;19913;-64
2021/06/08 23:28:06;;;;;;;;;;;15.90;99.90;;;;;;8363140;28;20378;-64
2021/06/08 23:32:07;;;;;;;;;;;15.80;99.90;;;;;;8363373;28;19916;-64
2021/06/08 23:36:07;;;;;;;;;;;15.90;99.90;;;;;;8362772;28;19909;-64